Time;durP1;ratioP1;P1;durP2;ratioP2;P2;SDS_P1;SDS_P2;PMS_P1;PMS_P2;Temp;Humidity;BMP_temperature;BMP_pressure;BME280_temperature;BME280_humidity;BME280_pressure;Samples;Min_cycle;Max_cycle;Signal;HPM_P1;HPM_P2
2021/03/13 00:01:01;;;;;;;;;;;25.40;99.90;;;;;;4979938;28;19964;-80
2021/03/13 00:03:28;;;;;;;;;;;25.50;99.90;;;;;;4991771;28;20289;-84
2021/03/13 00:05:56;;;;;;;;;;;25.50;99.90;;;;;;4994579;28;20126;-85
2021/03/13 00:08:24;;;;;;;;;;;25.60;99.90;;;;;;4990626;28;19914;-80
2021/03/13 00:10:51;;;;;;;;;;;25.70;99.90;;;;;;4983057;28;19910;-80
2021/03/13 00:13:19;;;;;;;;;;;25.80;99.90;;;;;;4980552;28;20324;-80
2021/03/13 00:15:46;;;;;;;;;;;25.90;99.90;;;;;;4987857;28;19925;-80
2021/03/13 00:18:16;;;;;;;;;;;26.00;99.90;;;;;;4984004;28;20005;-80
2021/03/13 00:20:43;;;;;;;;;;;26.10;99.90;;;;;;4981920;28;19914;-81
2021/03/13 00:23:10;;;;;;;;;;;26.20;99.90;;;;;;4981555;28;19910;-81
2021/03/13 00:25:37;;;;;;;;;;;26.10;99.90;;;;;;4985628;28;20369;-81
2021/03/13 00:28:07;;;;;;;;;;;26.20;99.90;;;;;;4985361;28;20004;-80
2021/03/13 00:30:40;;;;;;;;;;;26.20;99.90;;;;;;4984084;28;20331;-80
2021/03/13 00:33:11;;;;;;;;;;;26.30;99.90;;;;;;4987556;28;19930;-81
2021/03/13 00:35:39;;;;;;;;;;;26.30;99.90;;;;;;4986450;28;19918;-80
2021/03/13 00:38:06;;;;;;;;;;;26.40;99.90;;;;;;4993713;28;19922;-81
2021/03/13 00:40:55;;;;;;;;;;;26.40;99.90;;;;;;4976801;28;19914;-83
2021/03/13 00:43:24;;;;;;;;;;;26.50;99.90;;;;;;4990781;28;19914;-81
2021/03/13 00:45:50;;;;;;;;;;;26.50;99.90;;;;;;5009048;28;19929;-82
2021/03/13 00:48:20;;;;;;;;;;;26.50;99.90;;;;;;4994807;28;20431;-80
2021/03/13 00:50:50;;;;;;;;;;;26.50;99.90;;;;;;4975547;28;20261;-83
2021/03/13 00:53:16;;;;;;;;;;;26.70;99.90;;;;;;4991376;28;20360;-82
2021/03/13 00:55:44;;;;;;;;;;;26.70;99.90;;;;;;4992178;28;19929;-85
2021/03/13 00:58:10;;;;;;;;;;;26.80;99.90;;;;;;4993036;28;19917;-80
2021/03/13 01:00:37;;;;;;;;;;;27.10;99.90;;;;;;4993887;28;19910;-83
2021/03/13 01:03:05;;;;;;;;;;;27.00;99.90;;;;;;4993771;28;19914;-82
2021/03/13 01:05:33;;;;;;;;;;;27.10;99.90;;;;;;4993714;28;19969;-82
2021/03/13 01:08:00;;;;;;;;;;;27.20;99.90;;;;;;4992885;28;19964;-81
2021/03/13 01:10:35;;;;;;;;;;;27.30;99.90;;;;;;4993657;28;19917;-80
2021/03/13 01:13:06;;;;;;;;;;;27.60;99.90;;;;;;4973617;28;19918;-77
2021/03/13 01:15:33;;;;;;;;;;;28.10;99.90;;;;;;4984716;28;19922;-78
2021/03/13 01:18:00;;;;;;;;;;;28.50;99.90;;;;;;4985432;28;19910;-78
2021/03/13 01:20:27;;;;;;;;;;;29.10;99.90;;;;;;4983097;28;19960;-78
2021/03/13 01:22:54;;;;;;;;;;;28.90;99.90;;;;;;4985703;28;19922;-78
2021/03/13 01:25:20;;;;;;;;;;;29.60;99.90;;;;;;4983445;28;20047;-78
2021/03/13 01:27:47;;;;;;;;;;;29.80;99.90;;;;;;4982692;28;19959;-78
2021/03/13 01:30:15;;;;;;;;;;;30.40;99.50;;;;;;4983577;28;20323;-78
2021/03/13 01:32:42;;;;;;;;;;;30.60;99.00;;;;;;4983115;28;20012;-79
2021/03/13 01:35:10;;;;;;;;;;;30.40;99.90;;;;;;4984663;28;20407;-79
2021/03/13 01:37:36;;;;;;;;;;;30.60;98.90;;;;;;4983065;28;19987;-79
2021/03/13 01:40:06;;;;;;;;;;;30.70;99.30;;;;;;4982435;28;19914;-78
2021/03/13 01:42:34;;;;;;;;;;;30.80;99.10;;;;;;4986263;28;20391;-80
2021/03/13 01:45:01;;;;;;;;;;;30.80;98.20;;;;;;4993366;28;20340;-79
2021/03/13 01:47:29;;;;;;;;;;;30.80;98.30;;;;;;4987794;28;19929;-82
2021/03/13 01:49:57;;;;;;;;;;;30.50;98.60;;;;;;4963599;28;20337;-81
2021/03/13 01:52:24;;;;;;;;;;;30.00;98.90;;;;;;4989219;28;19929;-81
2021/03/13 01:54:51;;;;;;;;;;;29.60;99.20;;;;;;4980597;28;19921;-82
2021/03/13 01:57:21;;;;;;;;;;;29.30;99.90;;;;;;4980699;28;19917;-81
2021/03/13 01:59:48;;;;;;;;;;;29.10;99.90;;;;;;4975567;28;19918;-80
2021/03/13 02:02:16;;;;;;;;;;;29.00;99.90;;;;;;4992545;28;20375;-81
2021/03/13 02:04:43;;;;;;;;;;;28.80;99.90;;;;;;4993371;28;19956;-82
2021/03/13 02:07:28;;;;;;;;;;;28.40;99.90;;;;;;4989900;28;19921;-82
2021/03/13 02:09:55;;;;;;;;;;;28.20;99.90;;;;;;4990424;28;19969;-82
2021/03/13 02:12:37;;;;;;;;;;;28.10;99.90;;;;;;4995452;28;19929;-82
2021/03/13 02:15:35;;;;;;;;;;;28.20;99.90;;;;;;4990648;28;19914;-84
2021/03/13 02:18:30;;;;;;;;;;;28.30;99.90;;;;;;4967392;28;20016;-88
2021/03/13 02:21:05;;;;;;;;;;;28.30;99.90;;;;;;4977559;28;19914;-82
2021/03/13 02:23:57;;;;;;;;;;;28.30;99.90;;;;;;4982701;28;20367;-83
2021/03/13 02:26:36;;;;;;;;;;;28.30;99.90;;;;;;4987965;28;19922;-82
2021/03/13 02:29:15;;;;;;;;;;;28.30;99.90;;;;;;4983162;28;19937;-80
2021/03/13 02:31:49;;;;;;;;;;;28.20;99.90;;;;;;4982171;28;20369;-81
2021/03/13 02:34:19;;;;;;;;;;;28.00;99.90;;;;;;4989658;28;19918;-81
2021/03/13 02:36:47;;;;;;;;;;;27.80;99.90;;;;;;4980356;28;20391;-81
2021/03/13 02:39:15;;;;;;;;;;;27.80;99.90;;;;;;4994070;28;19953;-81
2021/03/13 02:41:44;;;;;;;;;;;27.70;99.90;;;;;;4987993;28;19916;-81
2021/03/13 02:44:13;;;;;;;;;;;27.70;99.90;;;;;;4986846;28;20013;-81
2021/03/13 02:46:44;;;;;;;;;;;27.70;99.90;;;;;;4995211;28;20012;-82
2021/03/13 02:49:11;;;;;;;;;;;27.70;99.90;;;;;;4980413;28;20411;-82
2021/03/13 02:51:40;;;;;;;;;;;27.90;99.90;;;;;;4977715;28;20028;-83
2021/03/13 02:54:07;;;;;;;;;;;27.90;99.90;;;;;;4991427;28;20269;-82
2021/03/13 02:56:38;;;;;;;;;;;27.80;99.90;;;;;;4996343;28;19914;-82
2021/03/13 02:59:05;;;;;;;;;;;27.80;99.90;;;;;;4997024;28;20316;-81
2021/03/13 03:01:33;;;;;;;;;;;27.70;99.90;;;;;;4996525;28;19918;-82
2021/03/13 03:04:00;;;;;;;;;;;27.70;99.90;;;;;;4979003;28;19960;-81
2021/03/13 03:06:27;;;;;;;;;;;27.70;99.90;;;;;;4986312;28;19921;-81
2021/03/13 03:08:54;;;;;;;;;;;27.60;99.90;;;;;;4987705;28;19945;-80
2021/03/13 03:11:21;;;;;;;;;;;27.60;99.90;;;;;;4994403;28;19910;-80
2021/03/13 03:13:49;;;;;;;;;;;27.80;99.90;;;;;;4995727;28;19917;-80
2021/03/13 03:16:21;;;;;;;;;;;27.80;99.90;;;;;;4995111;28;19910;-81
2021/03/13 03:18:51;;;;;;;;;;;27.80;99.90;;;;;;4986501;28;20359;-81
2021/03/13 03:21:22;;;;;;;;;;;27.80;99.90;;;;;;4991300;28;19928;-81
2021/03/13 03:23:48;;;;;;;;;;;27.70;99.90;;;;;;4975435;28;19918;-82
2021/03/13 03:26:15;;;;;;;;;;;27.60;99.90;;;;;;4992734;28;20459;-81
2021/03/13 03:28:48;;;;;;;;;;;27.50;99.90;;;;;;4994835;28;19936;-82
2021/03/13 03:31:15;;;;;;;;;;;27.50;99.90;;;;;;4988725;28;20340;-82
2021/03/13 03:33:42;;;;;;;;;;;27.40;99.90;;;;;;4976622;28;19984;-83
2021/03/13 03:36:09;;;;;;;;;;;27.30;99.90;;;;;;4995326;28;19992;-85
2021/03/13 03:38:36;;;;;;;;;;;27.30;99.90;;;;;;4995535;28;20375;-82
2021/03/13 03:41:03;;;;;;;;;;;27.20;99.90;;;;;;4996002;28;19917;-82
2021/03/13 03:43:36;;;;;;;;;;;27.00;99.90;;;;;;4995371;28;19926;-82
2021/03/13 03:46:04;;;;;;;;;;;27.00;99.90;;;;;;4995501;28;19937;-81
2021/03/13 03:48:32;;;;;;;;;;;26.90;99.90;;;;;;4978439;28;19921;-81
2021/03/13 03:50:59;;;;;;;;;;;27.00;99.90;;;;;;4978964;28;19917;-81
2021/03/13 03:53:30;;;;;;;;;;;27.20;99.90;;;;;;4992092;28;20005;-82
2021/03/13 03:55:57;;;;;;;;;;;27.60;99.90;;;;;;4996673;28;19910;-81
2021/03/13 03:58:25;;;;;;;;;;;27.80;99.90;;;;;;4991548;28;19918;-87
2021/03/13 04:00:53;;;;;;;;;;;28.00;99.90;;;;;;4988415;28;19910;-86
2021/03/13 04:03:21;;;;;;;;;;;27.80;99.90;;;;;;4987727;28;19917;-84
2021/03/13 04:05:48;;;;;;;;;;;27.50;99.90;;;;;;4981616;28;19914;-79
2021/03/13 04:08:16;;;;;;;;;;;27.40;99.90;;;;;;4985726;28;19917;-80
2021/03/13 04:10:47;;;;;;;;;;;27.40;99.90;;;;;;4983186;28;19914;-80
2021/03/13 04:13:16;;;;;;;;;;;27.20;99.90;;;;;;4984234;28;19918;-81
2021/03/13 04:15:44;;;;;;;;;;;27.00;99.90;;;;;;4983874;28;20412;-81
2021/03/13 04:18:11;;;;;;;;;;;26.90;99.90;;;;;;4983150;28;20001;-82
2021/03/13 04:20:39;;;;;;;;;;;26.80;99.90;;;;;;4986703;28;19986;-82
2021/03/13 04:23:09;;;;;;;;;;;26.80;99.90;;;;;;4988378;28;19918;-81
2021/03/13 04:25:37;;;;;;;;;;;26.60;99.90;;;;;;4992211;28;19914;-79
2021/03/13 04:28:04;;;;;;;;;;;26.60;99.90;;;;;;4989834;28;19914;-80
2021/03/13 04:30:31;;;;;;;;;;;26.50;99.90;;;;;;4984376;28;20009;-78
2021/03/13 04:32:59;;;;;;;;;;;26.50;99.90;;;;;;4984904;28;19922;-79
2021/03/13 04:35:27;;;;;;;;;;;26.50;99.90;;;;;;4985847;28;20001;-79
2021/03/13 04:37:54;;;;;;;;;;;26.40;99.90;;;;;;4985888;28;19928;-79
2021/03/13 04:40:21;;;;;;;;;;;26.40;99.90;;;;;;4987316;28;19913;-79
2021/03/13 04:42:48;;;;;;;;;;;26.40;99.90;;;;;;4984599;28;19921;-80
2021/03/13 04:45:16;;;;;;;;;;;26.60;99.90;;;;;;4986553;28;19925;-80
2021/03/13 04:47:44;;;;;;;;;;;26.80;99.90;;;;;;4993730;28;19914;-80
2021/03/13 04:50:11;;;;;;;;;;;27.00;99.90;;;;;;4989134;28;19914;-78
2021/03/13 04:52:44;;;;;;;;;;;27.20;99.90;;;;;;4981256;28;19930;-79
2021/03/13 04:55:11;;;;;;;;;;;27.20;99.90;;;;;;4989650;28;19913;-79
2021/03/13 04:57:38;;;;;;;;;;;27.20;99.90;;;;;;4986689;28;20372;-79
2021/03/13 05:00:06;;;;;;;;;;;27.10;99.90;;;;;;4985190;28;19913;-81
2021/03/13 05:02:33;;;;;;;;;;;27.00;99.90;;;;;;4984922;28;19922;-81
2021/03/13 05:05:00;;;;;;;;;;;26.80;99.90;;;;;;4983704;28;20376;-79
2021/03/13 05:07:27;;;;;;;;;;;26.70;99.90;;;;;;4985677;28;19928;-79
2021/03/13 05:09:53;;;;;;;;;;;26.80;99.90;;;;;;4975273;28;20589;-79
2021/03/13 05:12:24;;;;;;;;;;;26.80;99.90;;;;;;4983324;28;19917;-80
2021/03/13 05:14:50;;;;;;;;;;;26.80;99.90;;;;;;4982777;28;20324;-81
2021/03/13 05:17:17;;;;;;;;;;;26.90;99.90;;;;;;4985750;28;20276;-80
2021/03/13 05:19:44;;;;;;;;;;;26.80;99.90;;;;;;4991753;28;19983;-79
2021/03/13 05:22:11;;;;;;;;;;;26.70;99.90;;;;;;4983903;28;20381;-80
2021/03/13 05:24:37;;;;;;;;;;;26.60;99.90;;;;;;4986245;28;19910;-79
2021/03/13 05:27:04;;;;;;;;;;;26.60;99.90;;;;;;4982728;28;19997;-80
2021/03/13 05:29:31;;;;;;;;;;;26.60;99.90;;;;;;4983563;28;19918;-80
2021/03/13 05:31:58;;;;;;;;;;;26.70;99.90;;;;;;4984093;28;19922;-81
2021/03/13 05:34:24;;;;;;;;;;;26.80;99.90;;;;;;4985943;28;20388;-81
2021/03/13 05:36:51;;;;;;;;;;;27.00;99.90;;;;;;4984344;28;20348;-81
2021/03/13 05:39:18;;;;;;;;;;;27.10;99.90;;;;;;4985736;28;20380;-78
2021/03/13 05:41:46;;;;;;;;;;;27.00;99.90;;;;;;4983052;28;19921;-78
2021/03/13 05:44:13;;;;;;;;;;;27.00;99.90;;;;;;4980717;28;20273;-80
2021/03/13 05:46:43;;;;;;;;;;;26.80;99.90;;;;;;4980085;28;19914;-80
2021/03/13 05:49:11;;;;;;;;;;;26.70;99.90;;;;;;4983041;28;19974;-80
2021/03/13 05:51:38;;;;;;;;;;;26.60;99.90;;;;;;4992113;28;20460;-80
2021/03/13 05:54:05;;;;;;;;;;;26.60;99.90;;;;;;4993721;28;19961;-78
2021/03/13 05:56:32;;;;;;;;;;;26.60;99.90;;;;;;4991923;28;19914;-83
2021/03/13 05:59:00;;;;;;;;;;;26.50;99.90;;;;;;4992607;28;19958;-85
2021/03/13 06:01:31;;;;;;;;;;;26.40;99.90;;;;;;4990084;28;19918;-84
2021/03/13 06:03:58;;;;;;;;;;;26.40;99.90;;;;;;4987943;28;19914;-80
2021/03/13 06:06:26;;;;;;;;;;;26.40;99.90;;;;;;4984351;28;20348;-77
2021/03/13 06:08:54;;;;;;;;;;;26.50;99.90;;;;;;4996890;28;20282;-87
2021/03/13 06:11:22;;;;;;;;;;;26.60;99.90;;;;;;4994837;28;19914;-82
2021/03/13 06:13:49;;;;;;;;;;;26.60;99.90;;;;;;4991138;28;20285;-81
2021/03/13 06:16:16;;;;;;;;;;;26.60;99.90;;;;;;4996484;28;19918;-84
2021/03/13 06:18:49;;;;;;;;;;;26.60;99.90;;;;;;4993800;28;19971;-81
2021/03/13 06:21:32;;;;;;;;;;;26.60;99.90;;;;;;4987292;28;19914;-87
2021/03/13 06:24:03;;;;;;;;;;;26.60;99.90;;;;;;4992031;28;19960;-81
2021/03/13 06:26:49;;;;;;;;;;;26.50;99.90;;;;;;4995905;28;20368;-80
2021/03/13 06:29:16;;;;;;;;;;;26.50;99.90;;;;;;5011968;28;20262;-86
2021/03/13 06:31:42;;;;;;;;;;;26.50;99.90;;;;;;4997235;28;19960;-87
2021/03/13 06:34:24;;;;;;;;;;;26.40;99.90;;;;;;4996685;28;19914;-87
2021/03/13 06:36:51;;;;;;;;;;;26.40;99.90;;;;;;4995572;28;20008;-84
2021/03/13 06:39:17;;;;;;;;;;;26.30;99.90;;;;;;4996377;28;20060;-87
2021/03/13 06:41:44;;;;;;;;;;;26.30;99.90;;;;;;4997303;28;20002;-85
2021/03/13 06:44:15;;;;;;;;;;;26.30;99.90;;;;;;4996399;28;19921;-87
2021/03/13 06:46:42;;;;;;;;;;;26.30;99.90;;;;;;4997599;28;19920;-89
2021/03/13 06:49:09;;;;;;;;;;;26.30;99.90;;;;;;4989658;28;19936;-88
2021/03/13 06:51:39;;;;;;;;;;;26.30;99.90;;;;;;4997585;28;19926;-87
2021/03/13 06:54:13;;;;;;;;;;;26.30;99.90;;;;;;4987756;28;20327;-86
2021/03/13 06:56:47;;;;;;;;;;;26.30;99.90;;;;;;4995911;28;19918;-89
2021/03/13 06:59:36;;;;;;;;;;;26.30;99.90;;;;;;5007838;28;19914;-77
2021/03/13 07:02:05;;;;;;;;;;;26.30;99.90;;;;;;4984262;28;19917;-80
2021/03/13 07:04:39;;;;;;;;;;;26.30;99.90;;;;;;4993466;28;19918;-80
2021/03/13 07:07:07;;;;;;;;;;;26.20;99.90;;;;;;4995076;28;20009;-80
2021/03/13 07:09:43;;;;;;;;;;;26.20;99.90;;;;;;4995797;28;19921;-80
2021/03/13 07:12:31;;;;;;;;;;;26.20;99.90;;;;;;4980381;28;20415;-81
2021/03/13 07:15:12;;;;;;;;;;;26.10;99.90;;;;;;4984803;28;20365;-82
2021/03/13 07:17:48;;;;;;;;;;;26.10;99.90;;;;;;4985305;28;19920;-86
2021/03/13 07:20:17;;;;;;;;;;;26.10;99.90;;;;;;4991793;28;19936;-80
2021/03/13 07:22:44;;;;;;;;;;;26.10;99.90;;;;;;4978474;28;20621;-82
2021/03/13 07:25:11;;;;;;;;;;;26.00;99.90;;;;;;4994609;28;19917;-79
2021/03/13 07:27:40;;;;;;;;;;;25.90;99.90;;;;;;4994897;28;20013;-79
2021/03/13 07:30:14;;;;;;;;;;;25.90;99.90;;;;;;4995094;28;20004;-77
2021/03/13 07:32:55;;;;;;;;;;;25.80;99.90;;;;;;4994905;28;20291;-84
2021/03/13 07:35:22;;;;;;;;;;;25.80;99.90;;;;;;4995486;28;19913;-77
2021/03/13 07:37:53;;;;;;;;;;;25.70;99.90;;;;;;4992363;28;19915;-78
2021/03/13 07:40:20;;;;;;;;;;;25.70;99.90;;;;;;4987747;28;19918;-81
2021/03/13 07:42:47;;;;;;;;;;;25.70;99.90;;;;;;4976766;28;20316;-82
2021/03/13 07:45:14;;;;;;;;;;;25.70;99.90;;;;;;4982919;28;19914;-77
2021/03/13 07:47:41;;;;;;;;;;;25.60;99.90;;;;;;4977789;28;20328;-77
2021/03/13 07:50:12;;;;;;;;;;;25.70;99.90;;;;;;4987330;28;20388;-78
2021/03/13 07:52:40;;;;;;;;;;;25.60;99.90;;;;;;4996837;28;19921;-82
2021/03/13 07:55:12;;;;;;;;;;;25.70;99.90;;;;;;4987683;28;19965;-81
2021/03/13 07:57:41;;;;;;;;;;;25.60;99.90;;;;;;4995203;28;19914;-78
2021/03/13 08:00:11;;;;;;;;;;;25.60;99.90;;;;;;4995089;28;19910;-81
2021/03/13 08:02:38;;;;;;;;;;;25.60;99.90;;;;;;4992539;28;19914;-78
2021/03/13 08:05:10;;;;;;;;;;;25.60;99.90;;;;;;4994743;28;20020;-85
2021/03/13 08:07:55;;;;;;;;;;;25.60;99.90;;;;;;4992854;28;19945;-78
2021/03/13 08:10:40;;;;;;;;;;;25.60;99.90;;;;;;4981346;28;19917;-81
2021/03/13 08:13:07;;;;;;;;;;;25.50;99.90;;;;;;4983051;28;20012;-79
2021/03/13 08:15:34;;;;;;;;;;;25.50;99.90;;;;;;4995828;28;19910;-79
2021/03/13 08:18:01;;;;;;;;;;;25.50;99.90;;;;;;4995782;28;19917;-78
2021/03/13 08:20:35;;;;;;;;;;;25.50;99.90;;;;;;5027102;28;19917;-80
2021/03/13 08:23:04;;;;;;;;;;;25.50;99.90;;;;;;4994408;28;19922;-82
2021/03/13 08:25:31;;;;;;;;;;;25.50;99.90;;;;;;4995318;28;20015;-82
2021/03/13 08:27:58;;;;;;;;;;;25.50;99.90;;;;;;4993965;28;19914;-79
2021/03/13 08:30:25;;;;;;;;;;;25.40;99.90;;;;;;4982187;28;19914;-77
2021/03/13 08:32:58;;;;;;;;;;;25.40;99.90;;;;;;4981496;28;19922;-81
2021/03/13 08:35:38;;;;;;;;;;;25.40;99.90;;;;;;4993139;28;19914;-81
2021/03/13 08:38:06;;;;;;;;;;;25.40;99.90;;;;;;4989651;28;20192;-76
2021/03/13 08:40:33;;;;;;;;;;;25.40;99.90;;;;;;5008027;28;19929;-77
2021/03/13 08:42:59;;;;;;;;;;;25.40;99.90;;;;;;4993388;28;19986;-81
2021/03/13 08:45:33;;;;;;;;;;;25.30;99.90;;;;;;4991926;28;19969;-77
2021/03/13 08:48:00;;;;;;;;;;;25.30;99.90;;;;;;4992500;28;19976;-75
2021/03/13 08:51:02;;;;;;;;;;;25.30;99.90;;;;;;4992176;28;19963;-79
2021/03/13 08:53:35;;;;;;;;;;;25.30;99.90;;;;;;4952465;29;19926;-76
2021/03/13 08:56:02;;;;;;;;;;;25.30;99.90;;;;;;4987889;28;20406;-76
2021/03/13 08:58:38;;;;;;;;;;;25.30;99.90;;;;;;4994655;28;20005;-77
2021/03/13 09:01:17;;;;;;;;;;;25.30;99.90;;;;;;4994511;28;19964;-76
2021/03/13 09:03:53;;;;;;;;;;;25.30;99.90;;;;;;4992022;28;19956;-79
2021/03/13 09:06:21;;;;;;;;;;;25.30;99.90;;;;;;4991641;28;19917;-77
2021/03/13 09:08:48;;;;;;;;;;;25.30;99.90;;;;;;4994408;28;19913;-79
2021/03/13 09:11:36;;;;;;;;;;;25.30;99.90;;;;;;4994271;28;19910;-77
2021/03/13 09:14:03;;;;;;;;;;;25.30;99.90;;;;;;4994221;28;20052;-77
2021/03/13 09:16:37;;;;;;;;;;;25.30;99.90;;;;;;4992737;28;19917;-77
2021/03/13 09:19:05;;;;;;;;;;;25.30;99.90;;;;;;4992905;28;19932;-78
2021/03/13 09:21:41;;;;;;;;;;;25.30;99.90;;;;;;4994053;28;19997;-79
2021/03/13 09:24:09;;;;;;;;;;;25.30;99.90;;;;;;4992481;28;19964;-79
2021/03/13 09:26:36;;;;;;;;;;;25.40;99.90;;;;;;4993965;28;19914;-79
2021/03/13 09:29:02;;;;;;;;;;;25.40;99.90;;;;;;4993635;28;19916;-78
2021/03/13 09:31:29;;;;;;;;;;;25.40;99.90;;;;;;4992512;28;19910;-77
2021/03/13 09:34:12;;;;;;;;;;;25.30;99.90;;;;;;4993822;28;20280;-78
2021/03/13 09:36:39;;;;;;;;;;;25.40;99.90;;;;;;4993628;28;19929;-81
2021/03/13 09:39:06;;;;;;;;;;;25.30;99.90;;;;;;4993321;28;20340;-77
2021/03/13 09:41:33;;;;;;;;;;;25.30;99.90;;;;;;5007330;28;19948;-77
2021/03/13 09:43:59;;;;;;;;;;;25.40;99.90;;;;;;5008101;28;19913;-81
2021/03/13 09:46:26;;;;;;;;;;;25.30;99.90;;;;;;4993736;28;19914;-77
2021/03/13 09:48:53;;;;;;;;;;;25.30;99.90;;;;;;4993791;28;19910;-78
2021/03/13 09:51:20;;;;;;;;;;;25.30;99.90;;;;;;5007964;28;19964;-78
2021/03/13 09:53:47;;;;;;;;;;;25.30;99.90;;;;;;4993570;28;19922;-80
2021/03/13 09:56:13;;;;;;;;;;;25.40;99.90;;;;;;4992061;28;20265;-80
2021/03/13 09:58:40;;;;;;;;;;;25.50;99.90;;;;;;4992405;28;19910;-76
2021/03/13 10:01:07;;;;;;;;;;;25.50;99.90;;;;;;4993775;28;19913;-80
2021/03/13 10:03:34;;;;;;;;;;;25.40;99.90;;;;;;4993442;28;20364;-82
2021/03/13 10:06:00;;;;;;;;;;;25.50;99.90;;;;;;5008628;28;19910;-83
2021/03/13 10:08:34;;;;;;;;;;;25.40;99.90;;;;;;4993248;28;19910;-80
2021/03/13 10:11:01;;;;;;;;;;;25.40;99.90;;;;;;4993537;28;19910;-78
2021/03/13 10:13:29;;;;;;;;;;;25.50;99.90;;;;;;5008294;28;20000;-81
2021/03/13 10:15:56;;;;;;;;;;;25.50;99.90;;;;;;4993342;28;19921;-81
2021/03/13 10:18:30;;;;;;;;;;;25.50;99.90;;;;;;4992138;28;19996;-79
2021/03/13 10:21:00;;;;;;;;;;;25.50;99.90;;;;;;4993461;28;19913;-80
2021/03/13 10:23:31;;;;;;;;;;;25.40;99.90;;;;;;4993281;28;19914;-78
2021/03/13 10:26:08;;;;;;;;;;;25.50;99.90;;;;;;4993295;28;19953;-77
2021/03/13 10:28:36;;;;;;;;;;;25.40;99.90;;;;;;5008513;28;20013;-80
2021/03/13 10:31:07;;;;;;;;;;;25.40;99.90;;;;;;4993489;28;19914;-76
2021/03/13 10:33:36;;;;;;;;;;;25.40;99.90;;;;;;4991174;28;20021;-76
2021/03/13 10:36:03;;;;;;;;;;;25.40;99.90;;;;;;4990381;28;20327;-80
2021/03/13 10:38:29;;;;;;;;;;;25.40;99.90;;;;;;4991606;28;19925;-80
2021/03/13 10:40:56;;;;;;;;;;;25.40;99.90;;;;;;4991258;28;19946;-82
2021/03/13 10:43:42;;;;;;;;;;;25.40;99.90;;;;;;4989889;28;19914;-83
2021/03/13 10:46:10;;;;;;;;;;;25.40;99.90;;;;;;4984082;28;20434;-78
2021/03/13 10:48:44;;;;;;;;;;;25.40;99.90;;;;;;4992210;28;19929;-77
2021/03/13 10:51:21;;;;;;;;;;;25.40;99.90;;;;;;4990476;28;19925;-82
2021/03/13 10:53:47;;;;;;;;;;;25.40;99.90;;;;;;4993493;28;19917;-79
2021/03/13 10:56:14;;;;;;;;;;;25.40;99.90;;;;;;4990546;28;19917;-77
2021/03/13 10:58:48;;;;;;;;;;;25.40;99.90;;;;;;4977215;28;19910;-81
2021/03/13 11:01:15;;;;;;;;;;;25.30;99.90;;;;;;4977677;28;19916;-81
2021/03/13 11:03:46;;;;;;;;;;;25.30;99.90;;;;;;4978254;28;20287;-78
2021/03/13 11:06:14;;;;;;;;;;;25.30;99.90;;;;;;4980781;28;19910;-79
2021/03/13 11:08:40;;;;;;;;;;;25.30;99.90;;;;;;4987648;28;19910;-78
2021/03/13 11:11:07;;;;;;;;;;;25.30;99.90;;;;;;4999480;28;19909;-78
2021/03/13 11:13:34;;;;;;;;;;;25.30;99.90;;;;;;5002260;28;19918;-78
2021/03/13 11:16:01;;;;;;;;;;;25.30;99.90;;;;;;4999067;28;19916;-78
2021/03/13 11:18:27;;;;;;;;;;;25.30;99.90;;;;;;4996557;28;19914;-84
2021/03/13 11:20:54;;;;;;;;;;;25.30;99.90;;;;;;4995703;28;19914;-86
2021/03/13 11:23:21;;;;;;;;;;;25.30;99.90;;;;;;4995252;28;19920;-80
2021/03/13 11:25:48;;;;;;;;;;;25.30;99.90;;;;;;4996451;28;19950;-78
2021/03/13 11:28:17;;;;;;;;;;;25.30;99.90;;;;;;4996874;28;19917;-86
2021/03/13 11:30:44;;;;;;;;;;;25.30;99.90;;;;;;4997092;28;19910;-87
2021/03/13 11:33:11;;;;;;;;;;;25.30;99.90;;;;;;4996769;28;19922;-82
2021/03/13 11:35:37;;;;;;;;;;;25.30;99.90;;;;;;4998368;28;19921;-79
2021/03/13 11:38:04;;;;;;;;;;;25.30;99.90;;;;;;4997516;28;19918;-78
2021/03/13 11:40:31;;;;;;;;;;;25.50;99.90;;;;;;4996655;28;19914;-84
2021/03/13 11:43:00;;;;;;;;;;;25.40;99.90;;;;;;4995521;28;20273;-80
2021/03/13 11:45:27;;;;;;;;;;;25.40;99.90;;;;;;4996626;28;19918;-85
2021/03/13 11:47:55;;;;;;;;;;;25.50;99.90;;;;;;5011163;28;19910;-86
2021/03/13 11:50:24;;;;;;;;;;;25.50;99.90;;;;;;5010548;28;20297;-85
2021/03/13 11:52:55;;;;;;;;;;;25.40;99.90;;;;;;4995360;28;19945;-80
2021/03/13 11:55:22;;;;;;;;;;;25.40;99.90;;;;;;4995704;28;20346;-84
2021/03/13 11:57:49;;;;;;;;;;;25.40;99.90;;;;;;4995495;28;19910;-81
2021/03/13 12:00:19;;;;;;;;;;;25.40;99.90;;;;;;4995014;28;19909;-82
2021/03/13 12:02:46;;;;;;;;;;;25.40;99.90;;;;;;4994346;28;19914;-78
2021/03/13 12:05:13;;;;;;;;;;;25.40;99.90;;;;;;4994569;28;19914;-86
2021/03/13 12:07:40;;;;;;;;;;;25.40;99.90;;;;;;4995225;28;19910;-85
2021/03/13 12:10:08;;;;;;;;;;;25.40;99.90;;;;;;4981644;28;20009;-78
2021/03/13 12:12:36;;;;;;;;;;;25.40;99.90;;;;;;4988342;28;19926;-84
2021/03/13 12:15:04;;;;;;;;;;;25.40;99.90;;;;;;4993397;28;19976;-86
2021/03/13 12:17:31;;;;;;;;;;;25.40;99.90;;;;;;4995011;28;19918;-86
2021/03/13 12:19:58;;;;;;;;;;;25.40;99.90;;;;;;4992990;28;19914;-81
2021/03/13 12:22:26;;;;;;;;;;;25.40;99.90;;;;;;4994069;28;19940;-82
2021/03/13 12:24:53;;;;;;;;;;;25.40;99.90;;;;;;4984038;28;19983;-85
2021/03/13 12:27:19;;;;;;;;;;;25.40;99.90;;;;;;4995219;28;20315;-86
2021/03/13 12:29:46;;;;;;;;;;;25.40;99.90;;;;;;5009735;28;19914;-84
2021/03/13 12:32:13;;;;;;;;;;;25.30;99.90;;;;;;4994584;28;20049;-80
2021/03/13 12:34:40;;;;;;;;;;;25.30;99.90;;;;;;4994695;28;19964;-81
2021/03/13 12:37:06;;;;;;;;;;;25.30;99.90;;;;;;4994688;28;19925;-85
2021/03/13 12:39:33;;;;;;;;;;;25.30;99.90;;;;;;4995030;28;19914;-84
2021/03/13 12:42:00;;;;;;;;;;;25.30;99.90;;;;;;4995184;28;19917;-83
2021/03/13 12:44:27;;;;;;;;;;;25.30;99.90;;;;;;4993313;28;19925;-86
2021/03/13 12:46:55;;;;;;;;;;;25.20;99.90;;;;;;4995275;28;19914;-86
2021/03/13 12:49:26;;;;;;;;;;;25.20;99.90;;;;;;4994536;28;20110;-85
2021/03/13 12:51:53;;;;;;;;;;;25.20;99.90;;;;;;4990295;28;19929;-85
2021/03/13 12:54:19;;;;;;;;;;;25.20;99.90;;;;;;4992514;28;20001;-82
2021/03/13 12:56:47;;;;;;;;;;;25.20;99.90;;;;;;4994673;28;19969;-85
2021/03/13 12:59:14;;;;;;;;;;;25.20;99.90;;;;;;5008501;28;19914;-83
2021/03/13 13:01:40;;;;;;;;;;;25.20;99.90;;;;;;4993993;28;19921;-83
2021/03/13 13:04:07;;;;;;;;;;;25.20;99.90;;;;;;4975216;28;19977;-83
2021/03/13 13:06:35;;;;;;;;;;;25.20;99.90;;;;;;4982733;28;19914;-87
2021/03/13 13:09:02;;;;;;;;;;;25.20;99.90;;;;;;4977194;28;19910;-78
2021/03/13 13:11:28;;;;;;;;;;;25.20;99.90;;;;;;4992699;28;20280;-83
2021/03/13 13:13:55;;;;;;;;;;;25.20;99.90;;;;;;4993609;28;20296;-83
2021/03/13 13:16:22;;;;;;;;;;;25.30;99.90;;;;;;4978533;28;20480;-81
2021/03/13 13:18:49;;;;;;;;;;;25.30;99.90;;;;;;4976787;28;19910;-79
2021/03/13 13:21:16;;;;;;;;;;;25.30;99.90;;;;;;4992593;28;19910;-84
2021/03/13 13:23:43;;;;;;;;;;;25.30;99.90;;;;;;4988396;28;19914;-84
2021/03/13 13:26:10;;;;;;;;;;;25.20;99.90;;;;;;4988042;28;19920;-88
2021/03/13 13:28:37;;;;;;;;;;;25.10;99.90;;;;;;4973342;28;19913;-83
2021/03/13 13:31:04;;;;;;;;;;;25.10;99.90;;;;;;4973322;28;19910;-80
2021/03/13 13:33:30;;;;;;;;;;;25.00;99.90;;;;;;4974604;28;19976;-83
2021/03/13 13:35:57;;;;;;;;;;;25.00;99.90;;;;;;4974879;28;19922;-82
2021/03/13 13:38:24;;;;;;;;;;;25.10;99.90;;;;;;4974594;28;19917;-83
2021/03/13 13:40:52;;;;;;;;;;;25.10;99.90;;;;;;4991435;28;19914;-82
2021/03/13 13:43:18;;;;;;;;;;;25.10;99.90;;;;;;4984394;28;19922;-84
2021/03/13 13:45:45;;;;;;;;;;;25.00;99.90;;;;;;4980751;28;19913;-83
2021/03/13 13:48:13;;;;;;;;;;;25.00;99.90;;;;;;4980251;28;19964;-79
2021/03/13 13:50:40;;;;;;;;;;;24.90;99.90;;;;;;4989963;28;20361;-80
2021/03/13 13:53:07;;;;;;;;;;;25.00;99.90;;;;;;4993170;28;19918;-81
2021/03/13 13:55:33;;;;;;;;;;;24.90;99.90;;;;;;4993559;28;20004;-82
2021/03/13 13:58:00;;;;;;;;;;;24.90;99.90;;;;;;4993647;28;19910;-79
2021/03/13 14:00:27;;;;;;;;;;;24.90;99.90;;;;;;4993129;28;19968;-78
2021/03/13 14:02:54;;;;;;;;;;;24.90;99.90;;;;;;4992566;28;19910;-79
2021/03/13 14:05:23;;;;;;;;;;;24.90;99.90;;;;;;4992355;28;20284;-86
2021/03/13 14:07:50;;;;;;;;;;;24.90;99.90;;;;;;4984963;28;19914;-80
2021/03/13 14:10:17;;;;;;;;;;;24.80;99.90;;;;;;4992605;28;19913;-79
2021/03/13 14:12:44;;;;;;;;;;;24.80;99.90;;;;;;4993755;28;19969;-82
2021/03/13 14:15:11;;;;;;;;;;;24.80;99.90;;;;;;4993823;28;19972;-83
2021/03/13 14:17:38;;;;;;;;;;;24.80;99.90;;;;;;5025016;28;20004;-78
2021/03/13 14:20:07;;;;;;;;;;;24.80;99.90;;;;;;4994138;28;19933;-84
2021/03/13 14:22:34;;;;;;;;;;;24.80;99.90;;;;;;4997586;28;19910;-80
2021/03/13 14:25:01;;;;;;;;;;;24.80;99.90;;;;;;4999855;28;19948;-84
2021/03/13 14:27:28;;;;;;;;;;;24.80;99.90;;;;;;4993712;28;19949;-82